Details From TNCB - Bonaire Flamingo
To SVBM - BARQUISIMETO INTL
Flight Number -
Tags generated
Created
Modified
Stats Distance 142 nm / 263 km
Max Altitude 8,300 ft / 2,530 m
Waypoints 3
Social Downloads 3
Likes 0
Share VATSIM

Download

Looking for another format? Having issues loading an existing format? Contact us
Advertisement - Login to hide

Notes

Basic altitude profile: - Ascent Rate: 2500ft/min - Ascent Speed: 250kts - Cruise Altitude: 35000ft - Cruise Speed: 420kts - Descent Rate: 1500ft/min - Descent Speed: 250kts Options: - Use NATs: no - Use PACOTS: no - Use low airways: yes - Use high airways: no

Route

TNCB LIXIL SVBM

ID Type Via Altitude Latitude Longitude Leg Dist Tot Dist Heading (true) Name
O TNCB APT - 0 ft / 0 m 12.13105˚ -68.26851˚ - 0 nm - Bonaire Flamingo
LIXIL FIX - 8,300 ft / 2,530 m 10.54975˚ -68.95036˚ 103 nm 103 nm 203° / 203° -
O SVBM APT - 0 ft / 0 m 10.04235˚ -69.35886˚ 38 nm 141 nm 218° / 218° BARQUISIMETO INTL

Altitude Profile

Advertisement - Login to hide

TNCB

Details ICAO TNCB (BON)
Name Bonaire Flamingo
Region Caribbean Netherlands, Aruba, Curaçao, Sint Maarten
Timezone America/Curacao (UTC-4.0)
Stats Elevation 20 ft / 6 m (AMSL)
Location 12.131046° -68.268511°
Runways 1
Magnetic Variation 11.744° W

METAR

TNCB 210255Z AUTO 09015KT 060V120 9999 // FEW016/// SCT020/// BKN027/// 27/24 Q1013 RE//

Decode

TAF

TAF TNCB 202258Z 2100/2206 09018KT 9999 SCT020 PROB30 TEMPO 2109/2115 6000 SHRA SCT018CB BKN020

Decode

Departure Runways

ID Width Length Bearing (true) Bearing (mag) Surface Threshold Offset Overrun Length
10 148 ft / 45 m 9,451 ft / 2,881 m 91.75° 103.49° Asphalt 0 ft / 0 m 0 ft / 0 m
28 148 ft / 45 m 9,451 ft / 2,881 m 271.76° 283.50° Asphalt 0 ft / 0 m 200 ft / 61 m

SVBM

Details ICAO SVBM (BRM)
Name BARQUISIMETO INTL
Region Venezuela
Timezone America/Caracas (UTC-4.0)
Stats Elevation 2,042 ft / 622 m (AMSL)
Location 10.042348° -69.358860°
Runways 1
Magnetic Variation 10.962° W

METAR

SVBM 210300Z 11005KT 9999 BKN013 23/21 Q1016

Decode

TAF

TAF SVBM 201600Z 2018/2118 11010KT 7000 FEW013CB BKN060 TX32/1800Z TN21/0800Z BECMG 2019/2023 07008KT VCTSRA OVC013CB

Decode

Destination Runways

ID Width Length Bearing (true) Bearing (mag) Surface Threshold Offset Overrun Length
09 147 ft / 45 m 9,428 ft / 2,874 m 80.91° 91.87° Asphalt 0 ft / 0 m 0 ft / 0 m
27 147 ft / 45 m 9,428 ft / 2,874 m 260.91° 271.87° Asphalt 1,541 ft / 470 m 315 ft / 96 m

Popular Alternatives